Time;durP1;ratioP1;P1;durP2;ratioP2;P2;SDS_P1;SDS_P2;PMS_P1;PMS_P2;Temp;Humidity;BMP_temperature;BMP_pressure;BME280_temperature;BME280_humidity;BME280_pressure;Samples;Min_cycle;Max_cycle;Signal;HPM_P1;HPM_P2
2023/05/23 00:00:56;;;;;;;8.38;4.30;;;16.20;36.30;;;;;;4956546;29;20668;-93
2023/05/23 00:03:23;;;;;;;5.03;4.15;;;16.10;38.60;;;;;;4956431;29;20208;-94
2023/05/23 00:05:50;;;;;;;7.60;3.80;;;16.10;38.80;;;;;;4956774;29;20196;-93
2023/05/23 00:08:17;;;;;;;5.65;3.92;;;16.10;38.80;;;;;;4974883;28;20223;-92
2023/05/23 00:10:44;;;;;;;5.13;4.20;;;16.10;39.50;;;;;;4967411;28;20203;-93
2023/05/23 00:13:13;;;;;;;4.97;3.63;;;16.00;39.70;;;;;;4956393;29;20259;-92
2023/05/23 00:15:41;;;;;;;6.20;4.15;;;16.00;42.00;;;;;;4956342;29;20203;-94
2023/05/23 00:18:09;;;;;;;6.85;4.20;;;16.00;43.40;;;;;;4957980;28;20545;-93
2023/05/23 00:20:36;;;;;;;6.28;4.35;;;15.90;44.70;;;;;;4975671;28;20262;-93
2023/05/23 00:23:04;;;;;;;7.50;4.07;;;15.90;46.50;;;;;;4958411;28;20200;-93
2023/05/23 00:25:33;;;;;;;6.60;4.35;;;15.80;44.60;;;;;;4956461;29;20214;-92
2023/05/23 00:27:59;;;;;;;4.88;3.85;;;15.80;46.40;;;;;;4956622;29;20282;-93
2023/05/23 00:30:29;;;;;;;6.57;4.05;;;15.80;46.20;;;;;;4956036;29;20317;-92
2023/05/23 00:32:56;;;;;;;5.75;4.40;;;15.70;51.30;;;;;;4938821;29;20217;-92
2023/05/23 00:35:23;;;;;;;5.90;3.88;;;15.70;49.80;;;;;;4956299;29;20210;-92
2023/05/23 00:37:50;;;;;;;4.80;4.07;;;15.70;57.70;;;;;;4956336;29;20616;-93
2023/05/23 00:40:17;;;;;;;5.57;4.13;;;15.60;57.40;;;;;;4956102;29;20229;-93
2023/05/23 00:42:44;;;;;;;6.95;4.50;;;15.50;62.70;;;;;;4955850;29;20217;-92
2023/05/23 00:45:12;;;;;;;7.55;4.30;;;15.40;65.60;;;;;;4955939;29;20208;-93
2023/05/23 00:47:41;;;;;;;7.70;4.50;;;15.30;72.30;;;;;;4956090;29;20257;-93
2023/05/23 00:50:10;;;;;;;6.68;4.22;;;15.30;75.60;;;;;;4937094;29;20228;-92
2023/05/23 00:52:38;;;;;;;4.40;3.85;;;15.30;77.80;;;;;;4958074;29;20659;-94
2023/05/23 00:55:07;;;;;;;6.80;4.23;;;15.30;79.60;;;;;;4959496;29;20207;-93
2023/05/23 00:57:39;;;;;;;5.10;4.10;;;15.30;82.50;;;;;;4959651;29;20266;-94
2023/05/23 01:00:07;;;;;;;6.57;4.10;;;15.30;84.20;;;;;;4959422;29;20272;-92
2023/05/23 01:02:36;;;;;;;7.63;4.15;;;15.30;85.30;;;;;;4941420;29;20210;-92
2023/05/23 01:05:04;;;;;;;4.85;4.10;;;15.30;87.00;;;;;;4959491;29;20667;-93
2023/05/23 01:07:31;;;;;;;5.67;4.30;;;15.30;86.90;;;;;;4959388;28;20245;-92
2023/05/23 01:09:58;;;;;;;4.70;3.90;;;15.30;86.20;;;;;;4939721;29;20229;-92
2023/05/23 01:12:33;;;;;;;9.37;5.00;;;15.30;90.90;;;;;;4929793;29;20576;-93
2023/05/23 01:15:07;;;;;;;8.40;4.67;;;15.20;93.70;;;;;;4940097;29;20198;-93
2023/05/23 01:17:43;;;;;;;7.55;4.53;;;15.10;95.00;;;;;;4940364;29;20194;-92
2023/05/23 01:20:12;;;;;;;6.80;4.60;;;15.00;97.90;;;;;;4942621;29;20195;-93
2023/05/23 01:22:59;;;;;;;7.72;4.60;;;15.00;99.90;;;;;;4940207;29;20207;-92
2023/05/23 01:25:35;;;;;;;10.77;4.90;;;14.90;99.90;;;;;;4940245;29;20190;-93
2023/05/23 01:28:05;;;;;;;5.50;4.72;;;14.90;99.90;;;;;;4940128;29;20197;-93
2023/05/23 01:30:35;;;;;;;10.97;5.20;;;14.80;99.90;;;;;;4939867;29;20216;-93
2023/05/23 01:33:02;;;;;;;5.77;4.97;;;14.70;99.90;;;;;;4939506;29;20685;-93
2023/05/23 01:35:31;;;;;;;7.30;5.23;;;14.70;99.90;;;;;;4939993;29;20211;-93
2023/05/23 01:37:58;;;;;;;5.57;4.97;;;14.60;99.90;;;;;;4921147;29;20569;-93
2023/05/23 01:40:25;;;;;;;7.40;5.10;;;14.50;99.90;;;;;;4951201;29;20725;-92
2023/05/23 01:42:53;;;;;;;12.70;5.33;;;14.40;99.90;;;;;;4939996;29;20196;-92
2023/05/23 01:45:25;;;;;;;6.47;5.60;;;14.40;99.90;;;;;;4939401;29;20340;-93
2023/05/23 01:47:53;;;;;;;8.97;5.80;;;14.40;99.90;;;;;;4939488;29;20692;-92
2023/05/23 01:50:20;;;;;;;7.47;5.50;;;14.40;99.90;;;;;;4939512;29;20696;-93
2023/05/23 01:52:47;;;;;;;8.47;5.57;;;14.30;99.90;;;;;;4939462;29;20212;-92
2023/05/23 01:55:21;;;;;;;6.93;5.67;;;14.30;99.90;;;;;;4939373;29;20292;-92
2023/05/23 01:57:49;;;;;;;7.67;5.80;;;14.20;99.90;;;;;;4939001;29;20641;-92
2023/05/23 02:00:17;;;;;;;8.80;5.97;;;14.10;99.90;;;;;;4920634;29;20196;-94
2023/05/23 02:02:45;;;;;;;6.63;5.90;;;14.10;99.90;;;;;;4924025;29;20209;-92
2023/05/23 02:05:12;;;;;;;7.63;5.90;;;14.00;99.90;;;;;;4944849;29;20196;-92
2023/05/23 02:07:39;;;;;;;7.87;6.13;;;13.90;99.90;;;;;;4938985;29;20228;-93
2023/05/23 02:10:09;;;;;;;9.13;6.50;;;13.80;99.90;;;;;;4938901;29;20228;-92
2023/05/23 02:12:36;;;;;;;10.23;6.67;;;13.70;1.00;;;;;;4939225;29;20204;-93
2023/05/23 02:15:03;;;;;;;11.23;6.67;;;13.60;1.00;;;;;;4939315;29;20207;-94
2023/05/23 02:17:30;;;;;;;8.70;6.67;;;13.60;1.00;;;;;;4939424;29;20203;-94
2023/05/23 02:19:58;;;;;;;10.93;6.93;;;13.50;1.00;;;;;;4939024;29;20207;-94
2023/05/23 02:22:25;;;;;;;8.87;6.50;;;13.40;1.00;;;;;;4938842;29;20536;-93
2023/05/23 02:24:52;;;;;;;10.10;6.50;;;13.30;1.00;;;;;;4939036;29;20215;-92
2023/05/23 02:27:19;;;;;;;10.97;6.43;;;13.10;1.00;;;;;;4936307;29;20205;-93
2023/05/23 02:29:46;;;;;;;7.60;6.70;;;13.00;1.00;;;;;;4939021;29;20229;-93
2023/05/23 02:32:13;;;;;;;10.23;6.93;;;13.00;1.00;;;;;;4938974;29;20194;-93
2023/05/23 02:34:40;;;;;;;9.20;6.70;;;12.90;1.00;;;;;;4938646;29;20201;-93
2023/05/23 02:37:08;;;;;;;9.73;6.70;;;13.00;1.00;;;;;;4938701;29;20204;-93
2023/05/23 02:39:35;;;;;;;88.57;38.87;;;13.00;1.00;;;;;;4940166;29;20210;-93
2023/05/23 02:42:03;;;;;;;49.43;25.37;;;13.00;1.00;;;;;;4919918;29;20211;-95
2023/05/23 02:44:30;;;;;;;15.93;8.97;;;13.10;1.00;;;;;;4919849;29;20648;-92
2023/05/23 02:46:56;;;;;;;9.53;7.50;;;13.10;1.00;;;;;;4919279;29;20664;-93
2023/05/23 02:49:23;;;;;;;10.37;7.27;;;13.20;1.00;;;;;;4919428;29;20575;-95
2023/05/23 02:51:50;;;;;;;9.80;7.03;;;13.20;1.00;;;;;;4932664;29;20674;-93
2023/05/23 02:54:18;;;;;;;8.67;7.13;;;13.20;1.00;;;;;;4938770;29;20207;-93
2023/05/23 02:56:45;;;;;;;10.17;7.00;;;13.20;1.00;;;;;;4938371;29;20211;-93
2023/05/23 02:59:12;;;;;;;9.00;7.00;;;13.20;1.00;;;;;;4938433;29;20199;-93
2023/05/23 03:01:39;;;;;;;8.10;6.90;;;13.20;1.00;;;;;;4938436;29;20214;-93
2023/05/23 03:04:06;;;;;;;8.87;7.20;;;13.10;1.00;;;;;;4938489;29;20246;-93
2023/05/23 03:06:33;;;;;;;7.90;7.00;;;13.00;1.00;;;;;;4938615;29;20202;-92
2023/05/23 03:09:00;;;;;;;8.57;6.83;;;12.90;25.90;;;;;;4955496;29;20321;-92
2023/05/23 03:11:28;;;;;;;8.43;7.47;;;12.90;90.30;;;;;;4957308;29;20204;-93
2023/05/23 03:13:55;;;;;;;9.27;7.30;;;12.80;99.90;;;;;;4937786;29;20202;-92
2023/05/23 03:16:23;;;;;;;11.10;7.80;;;12.70;99.90;;;;;;4938407;29;20202;-93
2023/05/23 03:18:50;;;;;;;9.87;7.20;;;12.70;99.90;;;;;;4945891;29;20203;-92
2023/05/23 03:21:16;;;;;;;10.30;7.50;;;12.60;99.90;;;;;;4957204;29;20205;-92
2023/05/23 03:23:43;;;;;;;11.97;7.17;;;12.60;99.90;;;;;;4956679;29;20236;-92
2023/05/23 03:26:10;;;;;;;9.83;7.07;;;12.70;99.90;;;;;;4957120;29;20200;-92
2023/05/23 03:28:38;;;;;;;10.27;7.13;;;12.80;99.90;;;;;;4957128;29;20208;-92
2023/05/23 03:31:05;;;;;;;8.87;7.27;;;12.90;99.90;;;;;;4956672;29;20224;-92
2023/05/23 03:33:32;;;;;;;14.33;6.90;;;13.00;99.90;;;;;;4957097;29;20282;-93
2023/05/23 03:35:59;;;;;;;9.60;7.03;;;13.20;99.90;;;;;;4956848;29;20204;-92
2023/05/23 03:38:27;;;;;;;8.73;6.60;;;13.40;99.90;;;;;;4956766;29;20289;-92
2023/05/23 03:40:54;;;;;;;10.63;7.03;;;13.60;35.10;;;;;;4956696;29;20201;-93
2023/05/23 03:43:20;;;;;;;10.27;6.63;;;13.80;1.00;;;;;;4957440;29;20279;-93
2023/05/23 03:45:49;;;;;;;9.87;7.33;;;14.00;1.00;;;;;;4956304;29;20206;-93
2023/05/23 03:48:15;;;;;;;11.60;7.20;;;14.10;1.00;;;;;;4954384;28;20333;-93
2023/05/23 03:50:42;;;;;;;8.83;7.20;;;14.20;1.00;;;;;;4955487;29;20222;-92
2023/05/23 03:53:09;;;;;;;10.93;7.43;;;14.30;1.00;;;;;;4956476;29;20213;-94
2023/05/23 03:55:36;;;;;;;10.37;7.33;;;14.30;1.00;;;;;;4956566;29;20202;-92
2023/05/23 03:58:02;;;;;;;9.70;7.43;;;14.30;1.00;;;;;;4956601;29;20220;-93
2023/05/23 04:00:29;;;;;;;8.70;7.20;;;14.40;1.00;;;;;;4956686;29;20211;-92
2023/05/23 04:02:58;;;;;;;9.17;7.50;;;14.40;1.00;;;;;;4956429;29;20202;-93
2023/05/23 04:05:25;;;;;;;11.33;7.80;;;14.50;1.00;;;;;;4956834;29;20213;-92
2023/05/23 04:07:52;;;;;;;8.97;7.03;;;14.50;1.00;;;;;;4956275;29;20329;-93
2023/05/23 04:10:19;;;;;;;12.47;7.27;;;14.70;1.00;;;;;;4956102;29;20226;-91
2023/05/23 04:12:46;;;;;;;9.57;7.23;;;14.70;1.00;;;;;;4956613;29;20218;-93
2023/05/23 04:15:13;;;;;;;10.83;7.20;;;14.90;1.00;;;;;;4956200;29;20204;-93
2023/05/23 04:17:40;;;;;;;7.67;6.87;;;15.00;1.00;;;;;;4956461;29;20207;-93
2023/05/23 04:20:09;;;;;;;7.90;7.10;;;15.20;1.00;;;;;;4956597;29;20211;-93
2023/05/23 04:22:36;;;;;;;12.82;7.72;;;15.40;1.00;;;;;;4956428;29;20201;-92
2023/05/23 04:25:03;;;;;;;7.63;6.70;;;15.60;1.00;;;;;;4956218;28;20202;-93
2023/05/23 04:27:30;;;;;;;11.10;7.57;;;15.70;1.00;;;;;;4960381;29;20214;-92
2023/05/23 04:29:59;;;;;;;7.93;7.00;;;15.90;1.00;;;;;;4944759;29;20223;-94
2023/05/23 04:32:26;;;;;;;13.90;7.13;;;16.20;1.00;;;;;;4960142;29;20211;-92
2023/05/23 04:34:52;;;;;;;13.13;6.82;;;16.60;1.00;;;;;;4960124;29;20211;-92
2023/05/23 04:37:24;;;;;;;12.07;6.50;;;16.90;1.00;;;;;;4959749;29;20200;-93
2023/05/23 04:39:51;;;;;;;10.68;6.85;;;17.00;1.00;;;;;;4959614;28;20216;-92
2023/05/23 04:42:23;;;;;;;12.07;7.18;;;17.00;1.00;;;;;;4960136;29;20254;-93
2023/05/23 04:44:50;;;;;;;10.27;6.78;;;17.00;1.00;;;;;;4960242;29;20215;-92
2023/05/23 04:47:17;;;;;;;8.80;7.10;;;17.00;1.00;;;;;;4959958;29;20206;-92
2023/05/23 04:49:44;;;;;;;7.93;6.85;;;17.00;1.00;;;;;;4959947;29;20199;-92
2023/05/23 04:52:12;;;;;;;10.60;7.00;;;17.00;1.00;;;;;;4969648;28;20648;-91
2023/05/23 04:54:43;;;;;;;12.93;7.70;;;17.10;1.00;;;;;;4969864;28;20291;-93
2023/05/23 04:57:11;;;;;;;9.02;6.85;;;17.20;1.00;;;;;;4959801;29;20215;-92
2023/05/23 04:59:38;;;;;;;10.63;6.82;;;17.20;1.00;;;;;;4971925;28;20202;-94
2023/05/23 05:02:05;;;;;;;9.85;7.00;;;17.20;1.00;;;;;;4966216;28;20272;-92
2023/05/23 05:04:32;;;;;;;10.60;7.38;;;17.10;1.00;;;;;;4966354;28;20203;-92
2023/05/23 05:06:59;;;;;;;8.25;7.13;;;17.10;1.00;;;;;;4959733;28;20199;-91
2023/05/23 05:09:26;;;;;;;10.52;6.85;;;17.10;1.00;;;;;;4959093;29;20204;-91
2023/05/23 05:11:54;;;;;;;9.55;7.40;;;16.90;1.00;;;;;;4959186;29;20278;-92
2023/05/23 05:14:21;;;;;;;8.98;7.15;;;16.90;1.00;;;;;;4959677;29;20207;-93
2023/05/23 05:16:48;;;;;;;9.30;7.55;;;16.80;1.00;;;;;;4958899;29;20234;-93
2023/05/23 05:19:15;;;;;;;14.27;7.45;;;16.80;1.00;;;;;;4959117;29;20222;-93
2023/05/23 05:21:42;;;;;;;10.73;6.95;;;16.70;1.00;;;;;;4958705;29;20188;-93
2023/05/23 05:24:09;;;;;;;9.57;7.10;;;16.70;1.00;;;;;;4960113;29;20200;-94
2023/05/23 05:26:36;;;;;;;11.00;7.70;;;16.80;1.00;;;;;;4960634;29;20197;-93
2023/05/23 05:29:05;;;;;;;8.20;7.32;;;16.80;1.00;;;;;;4959516;29;20200;-92
2023/05/23 05:31:32;;;;;;;10.00;7.43;;;16.90;1.00;;;;;;4958965;29;20688;-92
2023/05/23 05:33:58;;;;;;;8.00;7.00;;;17.00;1.00;;;;;;4959508;29;20251;-93
2023/05/23 05:36:25;;;;;;;9.32;7.50;;;17.10;1.00;;;;;;4959002;28;20196;-93
2023/05/23 05:38:52;;;;;;;11.45;7.40;;;17.20;1.00;;;;;;4959173;29;20204;-93
2023/05/23 05:41:19;;;;;;;8.02;6.82;;;17.30;1.00;;;;;;4960504;28;20204;-92
2023/05/23 05:43:46;;;;;;;8.38;7.20;;;17.40;1.00;;;;;;4967884;28;20193;-95
2023/05/23 05:46:14;;;;;;;8.07;6.65;;;17.50;1.00;;;;;;4968220;28;20202;-94
2023/05/23 05:48:41;;;;;;;7.45;6.75;;;17.70;1.00;;;;;;4968801;28;20232;-94
2023/05/23 05:51:07;;;;;;;13.07;8.35;;;17.90;1.00;;;;;;4958499;29;20220;-94
2023/05/23 05:53:34;;;;;;;17.45;8.93;;;18.20;1.00;;;;;;4959022;29;20202;-93
2023/05/23 05:56:02;;;;;;;12.30;6.85;;;18.40;1.00;;;;;;4959029;28;20634;-93
2023/05/23 05:58:28;;;;;;;8.52;6.80;;;18.50;1.00;;;;;;4958952;28;20209;-93
2023/05/23 06:00:55;;;;;;;10.43;7.40;;;18.80;99.90;;;;;;4958588;28;20192;-93
2023/05/23 06:03:24;;;;;;;9.38;6.55;;;19.10;99.90;;;;;;4958580;29;20196;-93
2023/05/23 06:05:51;;;;;;;11.65;6.72;;;19.40;99.90;;;;;;4958775;29;20214;-93
2023/05/23 06:08:17;;;;;;;8.02;6.75;;;19.60;99.90;;;;;;4958680;28;20227;-93
2023/05/23 06:10:46;;;;;;;9.15;6.45;;;19.80;99.90;;;;;;4961944;28;20795;-93
2023/05/23 06:13:12;;;;;;;8.75;6.82;;;19.90;99.90;;;;;;4972367;28;20200;-93
2023/05/23 06:15:40;;;;;;;7.80;6.40;;;20.00;99.90;;;;;;4958379;29;20209;-92
2023/05/23 06:18:06;;;;;;;8.68;6.50;;;20.20;99.90;;;;;;4958408;29;20561;-93
2023/05/23 06:20:35;;;;;;;8.85;6.65;;;20.20;99.90;;;;;;4956716;28;20219;-93
2023/05/23 06:23:04;;;;;;;7.43;6.10;;;20.40;99.90;;;;;;4956884;28;20219;-93
2023/05/23 06:25:31;;;;;;;10.10;6.03;;;20.70;99.90;;;;;;4957858;28;20703;-92
2023/05/23 06:27:58;;;;;;;10.43;6.22;;;20.90;99.90;;;;;;4960708;28;20214;-92
2023/05/23 06:30:25;;;;;;;7.45;6.07;;;21.10;99.90;;;;;;4962010;28;20231;-93
2023/05/23 06:32:51;;;;;;;9.63;6.05;;;21.30;99.90;;;;;;4957974;28;20205;-94
2023/05/23 06:35:18;;;;;;;7.57;5.88;;;21.50;99.90;;;;;;4957910;28;20192;-93
2023/05/23 06:37:47;;;;;;;9.45;6.10;;;21.70;99.90;;;;;;4957784;28;20196;-93
2023/05/23 06:40:14;;;;;;;8.63;5.97;;;22.00;99.90;;;;;;4958102;29;20212;-94
2023/05/23 06:42:40;;;;;;;9.07;5.82;;;22.30;99.90;;;;;;4948769;29;20197;-94
2023/05/23 06:45:08;;;;;;;10.77;5.50;;;22.60;99.90;;;;;;4953387;29;20212;-93
2023/05/23 06:47:35;;;;;;;9.32;5.15;;;22.90;99.90;;;;;;4967853;28;20196;-94
2023/05/23 06:50:02;;;;;;;7.70;5.80;;;23.00;99.90;;;;;;4976585;28;20199;-94
2023/05/23 06:52:29;;;;;;;8.88;5.65;;;23.00;99.90;;;;;;4963701;28;20246;-94
2023/05/23 06:54:57;;;;;;;8.50;5.18;;;22.80;99.90;;;;;;4959293;28;20220;-93
2023/05/23 06:57:24;;;;;;;10.05;6.43;;;22.50;99.90;;;;;;4950494;29;20665;-93
2023/05/23 06:59:51;;;;;;;7.05;5.63;;;22.30;99.90;;;;;;4947836;28;20235;-94
2023/05/23 07:02:17;;;;;;;14.43;5.80;;;22.10;99.90;;;;;;4956450;29;20189;-93
2023/05/23 07:04:44;;;;;;;12.02;5.97;;;21.90;99.90;;;;;;4956998;28;20732;-93
2023/05/23 07:07:11;;;;;;;13.32;6.50;;;21.90;99.90;;;;;;4956883;28;20232;-93
2023/05/23 07:09:38;;;;;;;11.02;6.20;;;21.90;99.90;;;;;;4967399;28;20204;-93
2023/05/23 07:12:07;;;;;;;13.90;6.13;;;22.00;99.90;;;;;;4967360;28;20227;-95
2023/05/23 07:14:34;;;;;;;13.70;6.57;;;22.20;99.90;;;;;;4949775;28;20193;-94
2023/05/23 07:17:01;;;;;;;9.75;6.72;;;22.30;99.90;;;;;;4957053;29;20208;-94
2023/05/23 07:19:28;;;;;;;11.50;6.22;;;22.50;99.90;;;;;;4956753;28;20288;-94
2023/05/23 07:21:55;;;;;;;14.32;6.32;;;22.60;99.90;;;;;;4957261;29;20214;-93
2023/05/23 07:24:21;;;;;;;10.35;6.00;;;22.70;99.90;;;;;;4967496;28;20254;-95
2023/05/23 07:26:48;;;;;;;13.15;6.63;;;22.90;99.90;;;;;;4965191;28;20288;-93
2023/05/23 07:29:16;;;;;;;10.18;6.25;;;22.90;99.90;;;;;;4945871;28;20207;-93
2023/05/23 07:31:43;;;;;;;8.45;6.07;;;23.00;99.90;;;;;;4956770;29;20307;-94
2023/05/23 07:34:10;;;;;;;9.20;5.68;;;23.00;99.90;;;;;;4956957;28;20570;-94
2023/05/23 07:36:39;;;;;;;13.52;6.25;;;23.10;99.90;;;;;;4967363;28;20373;-94
2023/05/23 07:39:06;;;;;;;13.90;6.53;;;23.10;99.90;;;;;;4946387;29;20200;-94
2023/05/23 07:41:33;;;;;;;13.48;6.32;;;23.10;99.90;;;;;;4947666;29;20196;-94
2023/05/23 07:44:00;;;;;;;20.80;6.70;;;23.10;99.90;;;;;;4953640;29;20203;-94
2023/05/23 07:46:28;;;;;;;19.33;7.30;;;23.20;99.90;;;;;;4944607;29;20200;-95
2023/05/23 07:48:55;;;;;;;10.40;5.97;;;23.20;99.90;;;;;;4953512;29;20207;-94
2023/05/23 07:51:22;;;;;;;10.63;6.38;;;23.30;99.90;;;;;;4954749;29;20227;-92
2023/05/23 07:53:49;;;;;;;12.00;6.60;;;23.20;99.90;;;;;;4956261;29;20204;-94
2023/05/23 07:56:16;;;;;;;13.88;6.03;;;23.40;99.90;;;;;;4964822;28;20218;-94
2023/05/23 07:58:43;;;;;;;12.00;6.00;;;23.40;99.90;;;;;;4962104;28;20207;-94
2023/05/23 08:01:10;;;;;;;8.20;6.30;;;23.60;99.90;;;;;;4962376;28;20200;-94
2023/05/23 08:03:38;;;;;;;10.07;6.10;;;23.70;99.90;;;;;;4956395;28;20200;-94
2023/05/23 08:06:06;;;;;;;6.35;5.70;;;24.00;99.90;;;;;;4966767;28;20210;-94
2023/05/23 08:08:33;;;;;;;9.18;6.00;;;24.10;99.90;;;;;;4956266;29;20263;-94
2023/05/23 08:10:59;;;;;;;7.65;6.03;;;24.00;99.90;;;;;;4962452;28;20220;-94
2023/05/23 08:13:27;;;;;;;9.18;6.05;;;24.00;99.90;;;;;;4975482;28;20567;-95
2023/05/23 08:15:54;;;;;;;7.30;5.72;;;23.90;99.90;;;;;;4964611;28;20203;-94
2023/05/23 08:18:20;;;;;;;13.30;6.07;;;23.90;99.90;;;;;;4956175;29;20214;-95
2023/05/23 08:20:49;;;;;;;10.93;5.65;;;23.80;99.90;;;;;;4966493;28;20198;-95
2023/05/23 08:23:16;;;;;;;7.40;5.40;;;23.60;99.90;;;;;;4945625;29;20192;-93
2023/05/23 08:25:43;;;;;;;9.02;5.80;;;23.40;99.90;;;;;;4943375;29;20232;-93
2023/05/23 08:28:10;;;;;;;7.57;5.38;;;23.30;99.90;;;;;;4955839;29;20208;-94
2023/05/23 08:30:37;;;;;;;10.63;5.90;;;23.20;99.90;;;;;;4955104;28;20208;-95
2023/05/23 08:33:04;;;;;;;14.43;5.70;;;23.00;99.90;;;;;;4956211;28;20196;-95
2023/05/23 08:35:33;;;;;;;12.18;6.00;;;22.90;99.90;;;;;;4943091;29;20205;-93
2023/05/23 08:38:02;;;;;;;12.15;6.30;;;22.90;99.90;;;;;;4948800;28;20658;-95
2023/05/23 08:40:31;;;;;;;22.70;8.30;;;23.00;99.90;;;;;;4955621;28;20259;-94
2023/05/23 08:42:57;;;;;;;12.20;6.60;;;22.90;99.90;;;;;;4945809;29;20201;-94
2023/05/23 08:45:24;;;;;;;15.32;6.32;;;22.90;99.90;;;;;;4954195;29;20204;-94
2023/05/23 08:47:52;;;;;;;9.75;5.75;;;22.90;99.90;;;;;;4966172;28;20200;-94
2023/05/23 08:50:19;;;;;;;9.30;6.18;;;22.90;99.90;;;;;;4965013;28;20222;-95
2023/05/23 08:52:52;;;;;;;12.65;6.20;;;22.80;99.90;;;;;;4949606;28;20215;-94
2023/05/23 08:55:21;;;;;;;16.63;6.70;;;22.70;99.90;;;;;;4961875;28;20200;-94
2023/05/23 08:57:48;;;;;;;9.10;6.32;;;22.50;99.90;;;;;;4953121;29;20205;-96
2023/05/23 09:00:16;;;;;;;8.70;5.65;;;22.40;99.90;;;;;;4961463;28;20287;-96
2023/05/23 09:02:44;;;;;;;10.45;7.20;;;22.20;99.90;;;;;;4955306;29;20204;-95
2023/05/23 09:05:11;;;;;;;9.55;6.70;;;22.00;99.90;;;;;;4967078;28;20210;-94
2023/05/23 09:07:38;;;;;;;8.95;5.97;;;21.90;99.90;;;;;;4962754;28;20231;-93
2023/05/23 09:10:07;;;;;;;7.57;6.25;;;21.70;99.90;;;;;;4956451;28;20197;-95
2023/05/23 09:12:36;;;;;;;8.90;6.40;;;21.60;99.90;;;;;;4958787;28;20212;-95
2023/05/23 09:15:03;;;;;;;9.18;6.28;;;21.50;99.90;;;;;;4960141;29;20238;-95
2023/05/23 09:17:31;;;;;;;10.30;6.57;;;21.50;99.90;;;;;;4960115;29;20685;-94
2023/05/23 09:19:58;;;;;;;9.85;7.15;;;21.40;99.90;;;;;;4959280;29;20243;-95
2023/05/23 09:22:26;;;;;;;8.82;6.18;;;21.40;99.90;;;;;;4960099;29;20204;-95
2023/05/23 09:24:53;;;;;;;9.45;6.20;;;21.40;99.90;;;;;;4961584;29;20205;-95
2023/05/23 09:27:20;;;;;;;8.70;6.57;;;21.30;99.90;;;;;;4959868;29;20201;-95
2023/05/23 09:29:49;;;;;;;10.82;6.90;;;21.20;99.90;;;;;;4963561;28;20206;-96
2023/05/23 09:32:17;;;;;;;9.02;6.82;;;21.10;99.90;;;;;;4960509;29;20220;-96
2023/05/23 09:34:56;;;;;;;10.18;6.75;;;21.00;99.90;;;;;;4962048;29;20200;-96
2023/05/23 09:37:23;;;;;;;8.73;6.38;;;20.90;99.90;;;;;;4960796;29;20228;-96
2023/05/23 09:39:50;;;;;;;8.77;6.75;;;20.80;99.90;;;;;;4969016;29;20207;-96
2023/05/23 09:42:21;;;;;;;8.43;7.43;;;20.80;99.90;;;;;;4963083;28;20565;-95
2023/05/23 09:44:50;;;;;;;9.48;7.28;;;20.80;99.90;;;;;;4962319;29;20184;-96
2023/05/23 09:47:17;;;;;;;10.05;7.18;;;20.90;99.90;;;;;;4960520;28;20295;-96
2023/05/23 09:49:46;;;;;;;7.53;6.30;;;21.00;99.90;;;;;;4968125;28;20200;-96
2023/05/23 09:52:13;;;;;;;9.95;7.20;;;21.20;99.90;;;;;;4959920;29;20228;-95
2023/05/23 09:54:40;;;;;;;10.70;8.00;;;21.40;99.90;;;;;;4968147;28;20203;-95
2023/05/23 09:57:10;;;;;;;9.75;6.85;;;21.50;99.90;;;;;;4968559;28;20211;-95
2023/05/23 09:59:41;;;;;;;8.02;6.80;;;21.70;99.90;;;;;;4940732;29;20630;-96
2023/05/23 10:02:13;;;;;;;9.90;7.35;;;21.80;99.90;;;;;;4971995;28;20242;-96
2023/05/23 10:04:41;;;;;;;13.93;7.07;;;21.90;99.90;;;;;;4962995;28;20202;-94
2023/05/23 10:07:14;;;;;;;12.40;7.88;;;22.10;99.90;;;;;;4972467;28;20235;-95
2023/05/23 10:09:44;;;;;;;9.73;6.95;;;22.20;99.90;;;;;;4978154;28;20211;-94
2023/05/23 10:12:42;;;;;;;8.30;6.85;;;22.30;99.90;;;;;;4977920;28;20208;-95
2023/05/23 10:15:11;;;;;;;8.43;7.53;;;22.50;99.90;;;;;;4977951;28;20286;-95
2023/05/23 10:17:53;;;;;;;11.63;8.50;;;22.70;99.90;;;;;;4977972;28;20200;-94
2023/05/23 10:20:25;;;;;;;9.20;7.88;;;22.80;99.90;;;;;;4939531;29;20193;-94
2023/05/23 10:22:52;;;;;;;14.90;8.95;;;23.10;99.90;;;;;;4938042;29;20177;-95
2023/05/23 10:25:19;;;;;;;10.40;8.48;;;23.30;99.90;;;;;;4939277;29;20209;-94
2023/05/23 10:27:49;;;;;;;11.48;9.23;;;23.60;99.90;;;;;;4939506;29;20201;-94
2023/05/23 10:30:16;;;;;;;11.35;8.05;;;23.90;99.90;;;;;;4961022;28;20203;-95
2023/05/23 10:32:45;;;;;;;10.55;9.38;;;24.20;99.90;;;;;;4960463;28;20263;-94
2023/05/23 10:35:20;;;;;;;14.05;10.80;;;24.40;99.90;;;;;;4960970;28;20199;-92
2023/05/23 10:37:55;;;;;;;13.70;9.93;;;24.50;99.90;;;;;;4962291;28;20187;-93
2023/05/23 10:40:31;;;;;;;14.95;9.75;;;24.60;99.90;;;;;;4977500;28;20192;-94
2023/05/23 10:43:03;;;;;;;12.68;9.35;;;24.80;99.90;;;;;;4977129;28;20553;-93
2023/05/23 10:45:29;;;;;;;10.00;8.68;;;24.90;99.90;;;;;;4971810;28;20210;-94
2023/05/23 10:48:00;;;;;;;9.40;8.40;;;25.00;99.90;;;;;;4957877;29;20207;-93
2023/05/23 10:50:32;;;;;;;10.25;8.05;;;25.00;99.90;;;;;;4958384;29;20206;-91
2023/05/23 10:53:00;;;;;;;10.93;8.32;;;24.90;99.90;;;;;;4957185;29;20268;-93
2023/05/23 10:55:31;;;;;;;10.55;7.63;;;25.00;99.90;;;;;;4957710;29;20196;-93
2023/05/23 10:58:16;;;;;;;12.35;7.70;;;25.00;99.90;;;;;;4959259;29;20184;-96
2023/05/23 11:00:52;;;;;;;8.60;7.65;;;24.90;99.90;;;;;;4957925;28;20216;-94
2023/05/23 11:03:34;;;;;;;8.27;6.80;;;24.90;99.90;;;;;;4957771;28;20185;-94
2023/05/23 11:06:02;;;;;;;10.25;7.15;;;24.80;99.90;;;;;;4957806;28;20204;-93
2023/05/23 11:08:37;;;;;;;8.80;6.85;;;24.70;99.90;;;;;;4957402;29;20228;-94
2023/05/23 11:11:04;;;;;;;8.70;6.75;;;24.40;99.90;;;;;;4955829;29;20203;-93
2023/05/23 11:13:55;;;;;;;7.88;6.13;;;24.30;99.90;;;;;;4957178;28;20684;-94
2023/05/23 11:16:29;;;;;;;11.50;5.50;;;24.10;99.90;;;;;;4957162;28;20211;-94
2023/05/23 11:19:24;;;;;;;9.52;5.50;;;24.10;99.90;;;;;;4957163;29;20629;-94
2023/05/23 11:21:54;;;;;;;6.40;5.70;;;23.90;99.90;;;;;;4957001;29;20204;-95
2023/05/23 11:24:21;;;;;;;9.48;6.40;;;23.60;99.90;;;;;;4957439;29;20303;-93
2023/05/23 11:26:59;;;;;;;10.35;6.28;;;23.40;99.90;;;;;;4956972;29;20740;-93
2023/05/23 11:29:27;;;;;;;7.25;6.43;;;23.30;99.90;;;;;;4956963;29;20192;-94
2023/05/23 11:31:54;;;;;;;9.77;6.82;;;23.00;99.90;;;;;;4956789;28;20755;-93
2023/05/23 11:34:25;;;;;;;7.85;6.38;;;22.90;99.90;;;;;;4956777;28;20223;-94
2023/05/23 11:36:54;;;;;;;9.55;7.13;;;22.70;99.90;;;;;;4956997;28;20189;-94
2023/05/23 11:39:21;;;;;;;11.13;6.90;;;22.50;99.90;;;;;;4966964;28;20201;-95
2023/05/23 11:41:58;;;;;;;8.95;6.70;;;22.30;99.90;;;;;;4956857;28;20208;-94
2023/05/23 11:44:25;;;;;;;12.23;7.03;;;22.10;99.90;;;;;;4937748;29;20195;-96
2023/05/23 11:47:02;;;;;;;8.80;6.20;;;22.00;99.90;;;;;;4955414;29;20212;-94
2023/05/23 11:49:31;;;;;;;7.50;6.22;;;21.80;99.90;;;;;;4956947;29;20210;-93
2023/05/23 11:51:58;;;;;;;8.90;6.15;;;21.50;99.90;;;;;;4970730;28;20203;-95
2023/05/23 11:54:26;;;;;;;9.20;6.72;;;21.30;99.90;;;;;;4975961;28;20230;-94
2023/05/23 11:56:53;;;;;;;7.47;5.82;;;21.10;99.90;;;;;;4976351;28;20205;-93
2023/05/23 11:59:21;;;;;;;8.25;6.47;;;20.90;99.90;;;;;;4975944;28;20187;-94
2023/05/23 12:01:48;;;;;;;8.32;6.00;;;20.70;99.90;;;;;;4975926;28;20211;-93
2023/05/23 12:04:15;;;;;;;8.05;5.90;;;20.60;99.90;;;;;;4962689;28;20292;-94
2023/05/23 12:06:49;;;;;;;12.73;6.30;;;20.40;99.90;;;;;;4956777;29;20210;-95
2023/05/23 12:09:16;;;;;;;7.78;5.93;;;20.20;99.90;;;;;;4956652;29;20207;-94
2023/05/23 12:11:44;;;;;;;9.57;6.32;;;20.10;99.90;;;;;;4957123;29;20195;-95
2023/05/23 12:14:16;;;;;;;8.82;6.20;;;20.00;99.90;;;;;;4957039;29;20220;-95
2023/05/23 12:16:45;;;;;;;9.10;6.50;;;19.90;99.90;;;;;;4957426;29;20196;-95
2023/05/23 12:19:12;;;;;;;10.50;6.00;;;19.90;99.90;;;;;;4956755;29;20200;-95
2023/05/23 12:21:44;;;;;;;9.75;6.40;;;19.80;99.90;;;;;;4956490;29;20196;-93
2023/05/23 12:24:20;;;;;;;8.23;6.32;;;19.80;99.90;;;;;;4956282;29;20751;-94
2023/05/23 12:26:48;;;;;;;10.40;6.40;;;19.80;99.90;;;;;;4956612;29;20194;-95
2023/05/23 12:29:16;;;;;;;7.57;6.75;;;19.90;99.90;;;;;;4956429;29;20204;-95
2023/05/23 12:31:43;;;;;;;8.35;6.40;;;19.90;1.00;;;;;;4956859;29;20211;-95
2023/05/23 12:34:11;;;;;;;9.00;7.15;;;19.90;1.00;;;;;;4958950;29;20231;-96
2023/05/23 12:36:39;;;;;;;8.48;6.10;;;19.80;1.00;;;;;;4960496;29;20200;-95
2023/05/23 12:39:06;;;;;;;11.32;7.80;;;19.70;1.00;;;;;;4969205;29;20204;-95
2023/05/23 12:41:36;;;;;;;9.77;7.10;;;19.60;1.00;;;;;;4968384;29;20208;-95
2023/05/23 12:44:03;;;;;;;8.52;6.00;;;19.60;1.00;;;;;;4960515;29;20201;-95
2023/05/23 12:46:30;;;;;;;9.30;6.38;;;19.50;1.00;;;;;;4944925;29;20263;-95
2023/05/23 12:48:57;;;;;;;7.55;6.40;;;19.40;1.00;;;;;;4973726;28;20195;-95
2023/05/23 12:51:23;;;;;;;7.03;6.07;;;19.40;1.00;;;;;;4966258;28;20196;-94